Terminal Aerodrome Forecast
Issued by NWS

Home | Current Version | Previous Version | Text Only | Print | Product List | Glossary On
Versions: 1 2 3 4 5 6 7 8 9 10 11 12 13 14 15 16 17 18 19 20 21 22 23 24 25 26 27
000
FTUS41 KBUF 181120
TAFJHW
TAF
KJHW 181120Z 1812/1912 21007KT P6SM BKN012
     FM181400 22011KT P6SM SCT020
     FM181700 24013G19KT P6SM VCSH BKN040
     FM182000 26013G20KT P6SM BKN050
     FM190000 26009KT P6SM SCT050
     FM190500 24006KT P6SM BKN015
      AMD LTD TO CLD VIS AND WIND=

USA.gov is the U.S. government's official web portal to all federal, state and local government web resources and services.